sensor_id;sensor_type;location;lat;lon;timestamp;temperature;humidity
3478;DHT22;37937;61.490;23.506;2022-08-01T00:01:42;14.80;99.90
3478;DHT22;37937;61.490;23.506;2022-08-01T00:04:09;14.80;99.90
3478;DHT22;37937;61.490;23.506;2022-08-01T00:06:35;14.80;99.90
3478;DHT22;37937;61.490;23.506;2022-08-01T00:09:01;14.80;99.90
3478;DHT22;37937;61.490;23.506;2022-08-01T00:11:26;14.80;99.90
3478;DHT22;37937;61.490;23.506;2022-08-01T00:13:52;14.80;99.90
3478;DHT22;37937;61.490;23.506;2022-08-01T00:16:18;14.70;99.90
3478;DHT22;37937;61.490;23.506;2022-08-01T00:18:43;14.70;99.90
3478;DHT22;37937;61.490;23.506;2022-08-01T00:21:10;14.70;99.90
3478;DHT22;37937;61.490;23.506;2022-08-01T00:23:35;14.70;99.90
3478;DHT22;37937;61.490;23.506;2022-08-01T00:26:01;14.60;99.90
3478;DHT22;37937;61.490;23.506;2022-08-01T00:28:27;14.60;99.90
3478;DHT22;37937;61.490;23.506;2022-08-01T00:30:53;14.60;99.90
3478;DHT22;37937;61.490;23.506;2022-08-01T00:33:18;14.60;99.90
3478;DHT22;37937;61.490;23.506;2022-08-01T00:35:44;14.50;99.90
3478;DHT22;37937;61.490;23.506;2022-08-01T00:38:09;14.40;99.90
3478;DHT22;37937;61.490;23.506;2022-08-01T00:40:36;14.40;99.90
3478;DHT22;37937;61.490;23.506;2022-08-01T00:43:02;14.40;99.90
3478;DHT22;37937;61.490;23.506;2022-08-01T00:45:28;14.40;99.90
3478;DHT22;37937;61.490;23.506;2022-08-01T00:47:54;14.40;99.90
3478;DHT22;37937;61.490;23.506;2022-08-01T00:50:20;14.40;99.90
3478;DHT22;37937;61.490;23.506;2022-08-01T00:52:46;14.40;99.90
3478;DHT22;37937;61.490;23.506;2022-08-01T00:55:13;14.40;99.90
3478;DHT22;37937;61.490;23.506;2022-08-01T00:57:39;14.30;99.90
3478;DHT22;37937;61.490;23.506;2022-08-01T01:00:07;14.30;99.90
3478;DHT22;37937;61.490;23.506;2022-08-01T01:02:33;14.20;99.90
3478;DHT22;37937;61.490;23.506;2022-08-01T01:05:00;14.20;99.90
3478;DHT22;37937;61.490;23.506;2022-08-01T01:08:13;14.20;99.90
3478;DHT22;37937;61.490;23.506;2022-08-01T01:10:15;14.10;99.90
3478;DHT22;37937;61.490;23.506;2022-08-01T01:18:09;14.00;99.90
3478;DHT22;37937;61.490;23.506;2022-08-01T01:20:39;13.90;99.90
3478;DHT22;37937;61.490;23.506;2022-08-01T01:23:10;13.90;99.90
3478;DHT22;37937;61.490;23.506;2022-08-01T01:30:30;13.80;99.90
3478;DHT22;37937;61.490;23.506;2022-08-01T01:32:57;13.70;99.90
3478;DHT22;37937;61.490;23.506;2022-08-01T01:35:24;13.60;99.90
3478;DHT22;37937;61.490;23.506;2022-08-01T01:37:53;13.60;99.90
3478;DHT22;37937;61.490;23.506;2022-08-01T01:40:19;13.60;99.90
3478;DHT22;37937;61.490;23.506;2022-08-01T01:42:45;13.60;99.90
3478;DHT22;37937;61.490;23.506;2022-08-01T01:45:11;13.50;99.90
3478;DHT22;37937;61.490;23.506;2022-08-01T01:47:38;13.50;99.90
3478;DHT22;37937;61.490;23.506;2022-08-01T01:50:04;13.40;99.90
3478;DHT22;37937;61.490;23.506;2022-08-01T01:52:32;13.30;99.90
3478;DHT22;37937;61.490;23.506;2022-08-01T01:54:58;13.30;99.90
3478;DHT22;37937;61.490;23.506;2022-08-01T01:57:26;13.20;99.90
3478;DHT22;37937;61.490;23.506;2022-08-01T01:59:53;13.20;99.90
3478;DHT22;37937;61.490;23.506;2022-08-01T02:02:19;13.20;99.90
3478;DHT22;37937;61.490;23.506;2022-08-01T02:04:51;13.10;99.90
3478;DHT22;37937;61.490;23.506;2022-08-01T02:07:22;13.00;99.90
3478;DHT22;37937;61.490;23.506;2022-08-01T02:09:50;13.00;99.90
3478;DHT22;37937;61.490;23.506;2022-08-01T02:12:16;12.90;99.90
3478;DHT22;37937;61.490;23.506;2022-08-01T02:14:42;12.90;99.90
3478;DHT22;37937;61.490;23.506;2022-08-01T02:17:10;12.90;99.90
3478;DHT22;37937;61.490;23.506;2022-08-01T02:19:37;12.90;99.90
3478;DHT22;37937;61.490;23.506;2022-08-01T02:22:10;12.80;99.90
3478;DHT22;37937;61.490;23.506;2022-08-01T02:24:39;12.80;99.90
3478;DHT22;37937;61.490;23.506;2022-08-01T02:27:07;12.80;99.90
3478;DHT22;37937;61.490;23.506;2022-08-01T02:29:42;12.80;99.90
3478;DHT22;37937;61.490;23.506;2022-08-01T02:32:11;12.80;99.90
3478;DHT22;37937;61.490;23.506;2022-08-01T02:34:37;12.70;99.90
3478;DHT22;37937;61.490;23.506;2022-08-01T02:37:03;12.60;99.90
3478;DHT22;37937;61.490;23.506;2022-08-01T02:39:30;12.70;99.90
3478;DHT22;37937;61.490;23.506;2022-08-01T02:41:58;12.70;99.90
3478;DHT22;37937;61.490;23.506;2022-08-01T02:44:30;12.60;99.90
3478;DHT22;37937;61.490;23.506;2022-08-01T02:46:57;12.60;99.90
3478;DHT22;37937;61.490;23.506;2022-08-01T02:49:23;12.70;99.90
3478;DHT22;37937;61.490;23.506;2022-08-01T02:51:49;13.00;99.90
3478;DHT22;37937;61.490;23.506;2022-08-01T02:54:16;13.10;99.90
3478;DHT22;37937;61.490;23.506;2022-08-01T02:56:43;13.00;99.90
3478;DHT22;37937;61.490;23.506;2022-08-01T02:59:13;13.00;99.90
3478;DHT22;37937;61.490;23.506;2022-08-01T03:01:41;13.00;99.90
3478;DHT22;37937;61.490;23.506;2022-08-01T03:04:07;12.90;99.90
3478;DHT22;37937;61.490;23.506;2022-08-01T03:06:35;12.90;99.90
3478;DHT22;37937;61.490;23.506;2022-08-01T03:09:03;12.80;99.90
3478;DHT22;37937;61.490;23.506;2022-08-01T03:11:29;12.80;99.90
3478;DHT22;37937;61.490;23.506;2022-08-01T03:13:56;12.70;99.90
3478;DHT22;37937;61.490;23.506;2022-08-01T03:16:22;12.60;99.90
3478;DHT22;37937;61.490;23.506;2022-08-01T03:18:50;12.60;99.90
3478;DHT22;37937;61.490;23.506;2022-08-01T03:21:17;12.50;99.90
3478;DHT22;37937;61.490;23.506;2022-08-01T03:23:44;12.50;99.90
3478;DHT22;37937;61.490;23.506;2022-08-01T03:26:10;12.50;99.90
3478;DHT22;37937;61.490;23.506;2022-08-01T03:28:37;12.50;99.90
3478;DHT22;37937;61.490;23.506;2022-08-01T03:31:04;12.40;99.90
3478;DHT22;37937;61.490;23.506;2022-08-01T03:33:30;12.40;99.90
3478;DHT22;37937;61.490;23.506;2022-08-01T03:35:56;12.50;99.90
3478;DHT22;37937;61.490;23.506;2022-08-01T03:38:25;12.40;99.90
3478;DHT22;37937;61.490;23.506;2022-08-01T03:40:56;12.40;99.90
3478;DHT22;37937;61.490;23.506;2022-08-01T03:43:34;12.50;99.90
3478;DHT22;37937;61.490;23.506;2022-08-01T03:46:05;12.50;99.90
3478;DHT22;37937;61.490;23.506;2022-08-01T03:48:34;12.60;99.90
3478;DHT22;37937;61.490;23.506;2022-08-01T03:51:01;12.70;99.90
3478;DHT22;37937;61.490;23.506;2022-08-01T03:53:30;12.80;99.90
3478;DHT22;37937;61.490;23.506;2022-08-01T03:55:55;12.80;99.90
3478;DHT22;37937;61.490;23.506;2022-08-01T03:58:23;12.90;99.90
3478;DHT22;37937;61.490;23.506;2022-08-01T04:00:50;12.90;99.90
3478;DHT22;37937;61.490;23.506;2022-08-01T04:03:15;13.00;99.90
3478;DHT22;37937;61.490;23.506;2022-08-01T04:05:42;13.10;99.90
3478;DHT22;37937;61.490;23.506;2022-08-01T04:08:08;13.10;99.90
3478;DHT22;37937;61.490;23.506;2022-08-01T04:10:33;13.30;99.90
3478;DHT22;37937;61.490;23.506;2022-08-01T04:12:59;13.50;99.90
3478;DHT22;37937;61.490;23.506;2022-08-01T04:15:25;13.70;99.90
3478;DHT22;37937;61.490;23.506;2022-08-01T04:17:50;14.00;99.90
3478;DHT22;37937;61.490;23.506;2022-08-01T04:20:16;14.50;99.90
3478;DHT22;37937;61.490;23.506;2022-08-01T04:22:42;15.40;99.90
3478;DHT22;37937;61.490;23.506;2022-08-01T04:25:15;16.00;99.90
3478;DHT22;37937;61.490;23.506;2022-08-01T04:27:43;16.90;99.90
3478;DHT22;37937;61.490;23.506;2022-08-01T04:30:10;17.40;99.90
3478;DHT22;37937;61.490;23.506;2022-08-01T04:32:37;18.00;99.90
3478;DHT22;37937;61.490;23.506;2022-08-01T04:35:05;18.40;99.90
3478;DHT22;37937;61.490;23.506;2022-08-01T04:37:31;18.90;99.90
3478;DHT22;37937;61.490;23.506;2022-08-01T04:39:59;19.20;99.90
3478;DHT22;37937;61.490;23.506;2022-08-01T04:42:26;19.60;99.90
3478;DHT22;37937;61.490;23.506;2022-08-01T04:44:52;20.10;99.90
3478;DHT22;37937;61.490;23.506;2022-08-01T04:47:18;20.10;99.90
3478;DHT22;37937;61.490;23.506;2022-08-01T04:49:44;20.10;99.90
3478;DHT22;37937;61.490;23.506;2022-08-01T04:52:12;20.50;99.90
3478;DHT22;37937;61.490;23.506;2022-08-01T04:54:37;20.70;99.90
3478;DHT22;37937;61.490;23.506;2022-08-01T04:57:03;20.90;99.90
3478;DHT22;37937;61.490;23.506;2022-08-01T04:59:30;21.10;99.90
3478;DHT22;37937;61.490;23.506;2022-08-01T05:02:05;20.80;99.90
3478;DHT22;37937;61.490;23.506;2022-08-01T05:04:31;21.00;99.90
3478;DHT22;37937;61.490;23.506;2022-08-01T05:06:57;21.10;99.90
3478;DHT22;37937;61.490;23.506;2022-08-01T05:09:23;21.50;99.90
3478;DHT22;37937;61.490;23.506;2022-08-01T05:11:48;21.90;99.90
3478;DHT22;37937;61.490;23.506;2022-08-01T05:14:14;21.60;99.90
3478;DHT22;37937;61.490;23.506;2022-08-01T05:16:40;22.20;99.90
3478;DHT22;37937;61.490;23.506;2022-08-01T05:19:07;21.90;99.90
3478;DHT22;37937;61.490;23.506;2022-08-01T05:21:33;22.50;99.90
3478;DHT22;37937;61.490;23.506;2022-08-01T05:23:59;22.50;99.90
3478;DHT22;37937;61.490;23.506;2022-08-01T05:26:24;22.80;99.90
3478;DHT22;37937;61.490;23.506;2022-08-01T05:28:50;22.90;99.90
3478;DHT22;37937;61.490;23.506;2022-08-01T05:31:16;23.30;99.90
3478;DHT22;37937;61.490;23.506;2022-08-01T05:33:41;22.90;99.90
3478;DHT22;37937;61.490;23.506;2022-08-01T05:36:07;22.60;99.90
3478;DHT22;37937;61.490;23.506;2022-08-01T05:38:33;22.60;99.90
3478;DHT22;37937;61.490;23.506;2022-08-01T05:40:58;22.60;99.90
3478;DHT22;37937;61.490;23.506;2022-08-01T05:43:24;23.20;99.90
3478;DHT22;37937;61.490;23.506;2022-08-01T05:45:49;23.30;99.90
3478;DHT22;37937;61.490;23.506;2022-08-01T05:48:16;23.60;99.90
3478;DHT22;37937;61.490;23.506;2022-08-01T05:50:41;23.50;99.90
3478;DHT22;37937;61.490;23.506;2022-08-01T05:53:07;23.00;99.90
3478;DHT22;37937;61.490;23.506;2022-08-01T05:55:34;23.00;99.90
3478;DHT22;37937;61.490;23.506;2022-08-01T05:58:00;23.70;99.90
3478;DHT22;37937;61.490;23.506;2022-08-01T06:00:25;23.30;99.90
3478;DHT22;37937;61.490;23.506;2022-08-01T06:02:51;23.50;99.90
3478;DHT22;37937;61.490;23.506;2022-08-01T06:05:17;23.90;99.90
3478;DHT22;37937;61.490;23.506;2022-08-01T06:07:42;23.70;99.90
3478;DHT22;37937;61.490;23.506;2022-08-01T06:10:08;23.90;99.90
3478;DHT22;37937;61.490;23.506;2022-08-01T06:12:34;23.80;99.90
3478;DHT22;37937;61.490;23.506;2022-08-01T06:15:00;23.60;99.90
3478;DHT22;37937;61.490;23.506;2022-08-01T06:17:26;24.00;99.90
3478;DHT22;37937;61.490;23.506;2022-08-01T06:19:51;24.00;99.90
3478;DHT22;37937;61.490;23.506;2022-08-01T06:22:17;24.30;99.90
3478;DHT22;37937;61.490;23.506;2022-08-01T06:24:43;24.10;99.90
3478;DHT22;37937;61.490;23.506;2022-08-01T06:27:08;23.40;99.90
3478;DHT22;37937;61.490;23.506;2022-08-01T06:29:34;23.70;99.90
3478;DHT22;37937;61.490;23.506;2022-08-01T06:32:00;23.70;99.90
3478;DHT22;37937;61.490;23.506;2022-08-01T06:34:26;24.20;99.90
3478;DHT22;37937;61.490;23.506;2022-08-01T06:36:51;24.20;99.90
3478;DHT22;37937;61.490;23.506;2022-08-01T06:39:17;23.50;99.90
3478;DHT22;37937;61.490;23.506;2022-08-01T06:41:43;23.70;99.90
3478;DHT22;37937;61.490;23.506;2022-08-01T06:44:11;23.60;99.90
3478;DHT22;37937;61.490;23.506;2022-08-01T06:46:37;23.70;99.90
3478;DHT22;37937;61.490;23.506;2022-08-01T06:49:04;23.90;99.90
3478;DHT22;37937;61.490;23.506;2022-08-01T06:51:31;23.80;99.90
3478;DHT22;37937;61.490;23.506;2022-08-01T06:53:57;23.70;99.90
3478;DHT22;37937;61.490;23.506;2022-08-01T06:56:24;23.40;99.90
3478;DHT22;37937;61.490;23.506;2022-08-01T06:58:50;23.30;99.90
3478;DHT22;37937;61.490;23.506;2022-08-01T07:01:16;23.80;99.90
3478;DHT22;37937;61.490;23.506;2022-08-01T07:03:43;23.50;99.90
3478;DHT22;37937;61.490;23.506;2022-08-01T07:06:09;23.70;99.90
3478;DHT22;37937;61.490;23.506;2022-08-01T07:08:36;23.50;99.90
3478;DHT22;37937;61.490;23.506;2022-08-01T07:11:01;23.50;99.90
3478;DHT22;37937;61.490;23.506;2022-08-01T07:13:28;23.60;99.90
3478;DHT22;37937;61.490;23.506;2022-08-01T07:15:56;23.50;99.90
3478;DHT22;37937;61.490;23.506;2022-08-01T07:18:22;23.60;99.90
3478;DHT22;37937;61.490;23.506;2022-08-01T07:20:48;23.50;99.90
3478;DHT22;37937;61.490;23.506;2022-08-01T07:23:14;23.20;99.90
3478;DHT22;37937;61.490;23.506;2022-08-01T07:25:42;23.50;99.90
3478;DHT22;37937;61.490;23.506;2022-08-01T07:28:08;23.60;99.90
3478;DHT22;37937;61.490;23.506;2022-08-01T07:30:39;23.10;99.90
3478;DHT22;37937;61.490;23.506;2022-08-01T07:33:07;23.20;99.90
3478;DHT22;37937;61.490;23.506;2022-08-01T07:35:34;23.20;99.90
3478;DHT22;37937;61.490;23.506;2022-08-01T07:38:04;23.60;99.90
3478;DHT22;37937;61.490;23.506;2022-08-01T07:40:29;23.50;99.90
3478;DHT22;37937;61.490;23.506;2022-08-01T07:42:55;23.80;99.80
3478;DHT22;37937;61.490;23.506;2022-08-01T07:45:21;23.90;98.30
3478;DHT22;37937;61.490;23.506;2022-08-01T07:47:47;23.80;99.90
3478;DHT22;37937;61.490;23.506;2022-08-01T07:50:15;23.70;92.10
3478;DHT22;37937;61.490;23.506;2022-08-01T07:52:41;24.20;99.90
3478;DHT22;37937;61.490;23.506;2022-08-01T07:55:08;23.90;99.90
3478;DHT22;37937;61.490;23.506;2022-08-01T07:57:34;23.50;99.90
3478;DHT22;37937;61.490;23.506;2022-08-01T08:00:00;23.90;99.90
3478;DHT22;37937;61.490;23.506;2022-08-01T08:02:25;23.70;99.90
3478;DHT22;37937;61.490;23.506;2022-08-01T08:04:52;23.70;98.50
3478;DHT22;37937;61.490;23.506;2022-08-01T08:07:19;23.90;99.90
3478;DHT22;37937;61.490;23.506;2022-08-01T08:09:46;23.90;94.30
3478;DHT22;37937;61.490;23.506;2022-08-01T08:12:12;23.90;95.60
3478;DHT22;37937;61.490;23.506;2022-08-01T08:14:38;23.30;93.00
3478;DHT22;37937;61.490;23.506;2022-08-01T08:17:04;23.50;99.90
3478;DHT22;37937;61.490;23.506;2022-08-01T08:19:30;23.70;97.80
3478;DHT22;37937;61.490;23.506;2022-08-01T08:21:59;23.90;94.20
3478;DHT22;37937;61.490;23.506;2022-08-01T08:24:24;24.10;73.20
3478;DHT22;37937;61.490;23.506;2022-08-01T08:26:53;24.50;94.20
3478;DHT22;37937;61.490;23.506;2022-08-01T08:29:19;24.40;81.50
3478;DHT22;37937;61.490;23.506;2022-08-01T08:31:45;24.10;87.20
3478;DHT22;37937;61.490;23.506;2022-08-01T08:34:11;24.40;57.30
3478;DHT22;37937;61.490;23.506;2022-08-01T08:36:37;24.30;66.10
3478;DHT22;37937;61.490;23.506;2022-08-01T08:39:03;24.30;65.00
3478;DHT22;37937;61.490;23.506;2022-08-01T08:41:32;24.40;78.60
3478;DHT22;37937;61.490;23.506;2022-08-01T08:43:59;24.40;40.80
3478;DHT22;37937;61.490;23.506;2022-08-01T08:46:26;24.30;83.30
3478;DHT22;37937;61.490;23.506;2022-08-01T08:48:53;24.20;71.00
3478;DHT22;37937;61.490;23.506;2022-08-01T08:51:19;24.20;69.80
3478;DHT22;37937;61.490;23.506;2022-08-01T08:53:46;24.70;48.90
3478;DHT22;37937;61.490;23.506;2022-08-01T08:56:12;25.00;33.20
3478;DHT22;37937;61.490;23.506;2022-08-01T08:58:38;25.10;40.30
3478;DHT22;37937;61.490;23.506;2022-08-01T09:01:06;24.90;58.50
3478;DHT22;37937;61.490;23.506;2022-08-01T09:03:34;25.20;40.50
3478;DHT22;37937;61.490;23.506;2022-08-01T09:06:01;25.40;22.00
3478;DHT22;37937;61.490;23.506;2022-08-01T09:08:28;25.70;30.00
3478;DHT22;37937;61.490;23.506;2022-08-01T09:10:54;25.90;58.10
3478;DHT22;37937;61.490;23.506;2022-08-01T09:13:20;26.10;41.30
3478;DHT22;37937;61.490;23.506;2022-08-01T09:15:46;26.20;20.40
3478;DHT22;37937;61.490;23.506;2022-08-01T09:18:32;25.90;48.40
3478;DHT22;37937;61.490;23.506;2022-08-01T09:23:38;25.10;37.30
3478;DHT22;37937;61.490;23.506;2022-08-01T09:26:06;25.40;40.40
3478;DHT22;37937;61.490;23.506;2022-08-01T09:28:32;25.50;36.60
3478;DHT22;37937;61.490;23.506;2022-08-01T09:30:58;25.90;48.20
3478;DHT22;37937;61.490;23.506;2022-08-01T09:33:50;26.20;46.00
3478;DHT22;37937;61.490;23.506;2022-08-01T09:36:16;26.10;30.40
3478;DHT22;37937;61.490;23.506;2022-08-01T09:38:42;25.80;21.40
3478;DHT22;37937;61.490;23.506;2022-08-01T09:41:08;26.10;30.10
3478;DHT22;37937;61.490;23.506;2022-08-01T09:43:38;25.70;22.90
3478;DHT22;37937;61.490;23.506;2022-08-01T09:46:09;26.20;41.80
3478;DHT22;37937;61.490;23.506;2022-08-01T09:48:36;26.00;10.40
3478;DHT22;37937;61.490;23.506;2022-08-01T09:51:05;26.40;26.40
3478;DHT22;37937;61.490;23.506;2022-08-01T09:53:41;25.90;10.30
3478;DHT22;37937;61.490;23.506;2022-08-01T09:56:11;26.00;14.70
3478;DHT22;37937;61.490;23.506;2022-08-01T09:58:58;26.60;20.80
3478;DHT22;37937;61.490;23.506;2022-08-01T10:01:23;26.50;12.10
3478;DHT22;37937;61.490;23.506;2022-08-01T10:04:05;26.60;13.60
3478;DHT22;37937;61.490;23.506;2022-08-01T10:06:31;27.00;13.30
3478;DHT22;37937;61.490;23.506;2022-08-01T10:08:57;26.20;5.80
3478;DHT22;37937;61.490;23.506;2022-08-01T10:11:23;26.20;5.70
3478;DHT22;37937;61.490;23.506;2022-08-01T10:13:49;26.80;8.10
3478;DHT22;37937;61.490;23.506;2022-08-01T10:16:14;26.70;10.10
3478;DHT22;37937;61.490;23.506;2022-08-01T10:18:41;27.00;17.50
3478;DHT22;37937;61.490;23.506;2022-08-01T10:21:08;27.10;6.70
3478;DHT22;37937;61.490;23.506;2022-08-01T10:23:36;26.90;5.90
3478;DHT22;37937;61.490;23.506;2022-08-01T10:26:02;26.70;5.10
3478;DHT22;37937;61.490;23.506;2022-08-01T10:28:30;27.00;7.00
3478;DHT22;37937;61.490;23.506;2022-08-01T10:30:59;26.80;7.70
3478;DHT22;37937;61.490;23.506;2022-08-01T10:33:25;27.20;12.60
3478;DHT22;37937;61.490;23.506;2022-08-01T10:35:52;27.40;13.40
3478;DHT22;37937;61.490;23.506;2022-08-01T10:38:17;27.80;4.90
3478;DHT22;37937;61.490;23.506;2022-08-01T10:40:44;27.80;7.40
3478;DHT22;37937;61.490;23.506;2022-08-01T10:43:10;27.70;1.00
3478;DHT22;37937;61.490;23.506;2022-08-01T10:45:37;27.30;9.30
3478;DHT22;37937;61.490;23.506;2022-08-01T10:50:37;27.80;4.50
3478;DHT22;37937;61.490;23.506;2022-08-01T10:53:07;27.50;1.00
3478;DHT22;37937;61.490;23.506;2022-08-01T10:55:45;27.40;3.70
3478;DHT22;37937;61.490;23.506;2022-08-01T10:58:11;27.20;2.60
3478;DHT22;37937;61.490;23.506;2022-08-01T11:00:37;27.20;4.70
3478;DHT22;37937;61.490;23.506;2022-08-01T11:03:04;27.50;1.00
3478;DHT22;37937;61.490;23.506;2022-08-01T11:05:31;27.40;5.60
3478;DHT22;37937;61.490;23.506;2022-08-01T11:07:57;26.90;2.50
3478;DHT22;37937;61.490;23.506;2022-08-01T11:12:52;27.80;4.80
3478;DHT22;37937;61.490;23.506;2022-08-01T11:15:18;28.00;3.20
3478;DHT22;37937;61.490;23.506;2022-08-01T11:17:50;27.30;1.00
3478;DHT22;37937;61.490;23.506;2022-08-01T11:20:20;27.50;1.00
3478;DHT22;37937;61.490;23.506;2022-08-01T11:25:24;27.70;1.50
3478;DHT22;37937;61.490;23.506;2022-08-01T11:30:37;26.70;1.00
3478;DHT22;37937;61.490;23.506;2022-08-01T11:33:03;26.30;1.20
3478;DHT22;37937;61.490;23.506;2022-08-01T11:35:31;26.10;1.70
3478;DHT22;37937;61.490;23.506;2022-08-01T11:37:56;26.10;11.70
3478;DHT22;37937;61.490;23.506;2022-08-01T11:40:42;26.30;6.40
3478;DHT22;37937;61.490;23.506;2022-08-01T11:43:18;25.60;4.40
3478;DHT22;37937;61.490;23.506;2022-08-01T11:45:48;25.10;4.80
3478;DHT22;37937;61.490;23.506;2022-08-01T11:48:17;25.70;9.40
3478;DHT22;37937;61.490;23.506;2022-08-01T11:50:43;26.00;3.80
3478;DHT22;37937;61.490;23.506;2022-08-01T11:53:09;25.90;1.30
3478;DHT22;37937;61.490;23.506;2022-08-01T11:55:35;25.60;6.30
3478;DHT22;37937;61.490;23.506;2022-08-01T11:58:04;25.80;11.30
3478;DHT22;37937;61.490;23.506;2022-08-01T12:00:30;26.30;13.80
3478;DHT22;37937;61.490;23.506;2022-08-01T12:03:03;25.60;7.20
3478;DHT22;37937;61.490;23.506;2022-08-01T12:05:29;25.60;13.30
3478;DHT22;37937;61.490;23.506;2022-08-01T12:07:55;26.10;8.40
3478;DHT22;37937;61.490;23.506;2022-08-01T12:10:23;25.80;1.80
3478;DHT22;37937;61.490;23.506;2022-08-01T12:12:50;26.20;9.90
3478;DHT22;37937;61.490;23.506;2022-08-01T12:15:16;26.50;2.40
3478;DHT22;37937;61.490;23.506;2022-08-01T12:17:46;26.30;7.70
3478;DHT22;37937;61.490;23.506;2022-08-01T12:20:13;25.70;6.90
3478;DHT22;37937;61.490;23.506;2022-08-01T12:22:40;25.80;3.90
3478;DHT22;37937;61.490;23.506;2022-08-01T12:25:07;25.50;9.70
3478;DHT22;37937;61.490;23.506;2022-08-01T12:27:33;24.80;9.40
3478;DHT22;37937;61.490;23.506;2022-08-01T12:29:59;25.20;6.60
3478;DHT22;37937;61.490;23.506;2022-08-01T12:32:28;25.50;2.60
3478;DHT22;37937;61.490;23.506;2022-08-01T12:34:56;25.10;7.10
3478;DHT22;37937;61.490;23.506;2022-08-01T12:37:23;25.70;4.60
3478;DHT22;37937;61.490;23.506;2022-08-01T12:39:48;25.80;12.80
3478;DHT22;37937;61.490;23.506;2022-08-01T12:42:14;26.00;9.20
3478;DHT22;37937;61.490;23.506;2022-08-01T12:44:40;26.20;11.40
3478;DHT22;37937;61.490;23.506;2022-08-01T12:47:07;26.30;2.30
3478;DHT22;37937;61.490;23.506;2022-08-01T12:49:33;26.10;4.40
3478;DHT22;37937;61.490;23.506;2022-08-01T12:52:00;26.00;1.00
3478;DHT22;37937;61.490;23.506;2022-08-01T12:54:27;25.80;2.40
3478;DHT22;37937;61.490;23.506;2022-08-01T12:56:52;26.00;4.60
3478;DHT22;37937;61.490;23.506;2022-08-01T12:59:19;25.70;4.50
3478;DHT22;37937;61.490;23.506;2022-08-01T13:01:45;25.60;3.30
3478;DHT22;37937;61.490;23.506;2022-08-01T13:04:11;25.60;5.50
3478;DHT22;37937;61.490;23.506;2022-08-01T13:06:36;25.40;8.70
3478;DHT22;37937;61.490;23.506;2022-08-01T13:09:06;25.60;5.70
3478;DHT22;37937;61.490;23.506;2022-08-01T13:11:31;25.60;5.40
3478;DHT22;37937;61.490;23.506;2022-08-01T13:13:57;25.70;5.30
3478;DHT22;37937;61.490;23.506;2022-08-01T13:16:24;25.80;3.30
3478;DHT22;37937;61.490;23.506;2022-08-01T13:18:54;25.90;3.10
3478;DHT22;37937;61.490;23.506;2022-08-01T13:21:21;25.70;4.60
3478;DHT22;37937;61.490;23.506;2022-08-01T13:26:45;25.30;8.70
3478;DHT22;37937;61.490;23.506;2022-08-01T13:29:12;25.30;12.70
3478;DHT22;37937;61.490;23.506;2022-08-01T13:31:38;25.70;4.20
3478;DHT22;37937;61.490;23.506;2022-08-01T13:34:04;25.30;1.00
3478;DHT22;37937;61.490;23.506;2022-08-01T13:36:30;25.30;14.30
3478;DHT22;37937;61.490;23.506;2022-08-01T13:38:57;25.30;10.00
3478;DHT22;37937;61.490;23.506;2022-08-01T13:41:41;25.40;5.80
3478;DHT22;37937;61.490;23.506;2022-08-01T13:44:07;25.30;4.60
3478;DHT22;37937;61.490;23.506;2022-08-01T13:46:34;25.00;14.30
3478;DHT22;37937;61.490;23.506;2022-08-01T13:49:00;25.00;16.00
3478;DHT22;37937;61.490;23.506;2022-08-01T13:51:25;24.80;6.40
3478;DHT22;37937;61.490;23.506;2022-08-01T13:53:51;24.80;5.80
3478;DHT22;37937;61.490;23.506;2022-08-01T13:56:17;24.90;7.40
3478;DHT22;37937;61.490;23.506;2022-08-01T13:58:43;24.70;6.20
3478;DHT22;37937;61.490;23.506;2022-08-01T14:01:09;24.80;5.10
3478;DHT22;37937;61.490;23.506;2022-08-01T14:03:35;24.50;4.80
3478;DHT22;37937;61.490;23.506;2022-08-01T14:06:02;24.30;11.70
3478;DHT22;37937;61.490;23.506;2022-08-01T14:08:28;24.30;11.00
3478;DHT22;37937;61.490;23.506;2022-08-01T14:10:53;24.20;8.40
3478;DHT22;37937;61.490;23.506;2022-08-01T14:13:23;24.20;17.50
3478;DHT22;37937;61.490;23.506;2022-08-01T14:15:50;24.20;14.90
3478;DHT22;37937;61.490;23.506;2022-08-01T14:18:16;24.10;14.90
3478;DHT22;37937;61.490;23.506;2022-08-01T14:20:43;24.10;10.30
3478;DHT22;37937;61.490;23.506;2022-08-01T14:23:10;24.10;5.30
3478;DHT22;37937;61.490;23.506;2022-08-01T14:25:40;24.10;11.00
3478;DHT22;37937;61.490;23.506;2022-08-01T14:28:12;24.10;8.60
3478;DHT22;37937;61.490;23.506;2022-08-01T14:30:38;24.00;9.50
3478;DHT22;37937;61.490;23.506;2022-08-01T14:33:03;23.90;7.80
3478;DHT22;37937;61.490;23.506;2022-08-01T14:35:29;23.90;8.80
3478;DHT22;37937;61.490;23.506;2022-08-01T14:37:55;24.10;24.70
3478;DHT22;37937;61.490;23.506;2022-08-01T14:40:21;24.00;6.40
3478;DHT22;37937;61.490;23.506;2022-08-01T14:42:46;24.10;41.00
3478;DHT22;37937;61.490;23.506;2022-08-01T14:45:12;23.80;16.10
3478;DHT22;37937;61.490;23.506;2022-08-01T14:47:39;23.70;13.50
3478;DHT22;37937;61.490;23.506;2022-08-01T14:50:06;23.60;13.20
3478;DHT22;37937;61.490;23.506;2022-08-01T14:52:33;23.50;9.10
3478;DHT22;37937;61.490;23.506;2022-08-01T14:54:59;23.40;10.90
3478;DHT22;37937;61.490;23.506;2022-08-01T14:57:25;23.40;12.50
3478;DHT22;37937;61.490;23.506;2022-08-01T14:59:52;23.40;20.00
3478;DHT22;37937;61.490;23.506;2022-08-01T15:02:18;23.60;15.00
3478;DHT22;37937;61.490;23.506;2022-08-01T15:04:47;23.90;25.70
3478;DHT22;37937;61.490;23.506;2022-08-01T15:07:13;23.80;15.50
3478;DHT22;37937;61.490;23.506;2022-08-01T15:09:39;23.80;15.90
3478;DHT22;37937;61.490;23.506;2022-08-01T15:12:07;23.90;13.30
3478;DHT22;37937;61.490;23.506;2022-08-01T15:14:33;24.00;11.50
3478;DHT22;37937;61.490;23.506;2022-08-01T15:17:21;24.20;7.60
3478;DHT22;37937;61.490;23.506;2022-08-01T15:19:47;24.50;7.50
3478;DHT22;37937;61.490;23.506;2022-08-01T15:22:14;24.60;8.00
3478;DHT22;37937;61.490;23.506;2022-08-01T15:24:40;24.40;3.40
3478;DHT22;37937;61.490;23.506;2022-08-01T15:27:06;24.50;6.00
3478;DHT22;37937;61.490;23.506;2022-08-01T15:29:31;24.50;6.50
3478;DHT22;37937;61.490;23.506;2022-08-01T15:31:58;24.50;4.20
3478;DHT22;37937;61.490;23.506;2022-08-01T15:34:24;24.60;10.50
3478;DHT22;37937;61.490;23.506;2022-08-01T15:36:50;24.60;4.80
3478;DHT22;37937;61.490;23.506;2022-08-01T15:39:16;24.50;7.90
3478;DHT22;37937;61.490;23.506;2022-08-01T15:41:42;24.60;1.40
3478;DHT22;37937;61.490;23.506;2022-08-01T15:44:08;24.70;4.10
3478;DHT22;37937;61.490;23.506;2022-08-01T15:46:35;24.80;5.40
3478;DHT22;37937;61.490;23.506;2022-08-01T15:49:04;24.80;3.70
3478;DHT22;37937;61.490;23.506;2022-08-01T15:51:30;24.60;10.10
3478;DHT22;37937;61.490;23.506;2022-08-01T15:53:56;24.70;5.00
3478;DHT22;37937;61.490;23.506;2022-08-01T15:56:22;24.70;2.70
3478;DHT22;37937;61.490;23.506;2022-08-01T15:58:48;24.70;2.90
3478;DHT22;37937;61.490;23.506;2022-08-01T16:01:13;24.60;12.10